sensor_id;sensor_type;location;lat;lon;timestamp;P1;durP1;ratioP1;P2;durP2;ratioP2
49015;SDS011;34830;44.064;12.566;2023-06-04T00:00:12;5.28;;;2.85;;
49015;SDS011;34830;44.064;12.566;2023-06-04T00:02:39;5.30;;;2.78;;
49015;SDS011;34830;44.064;12.566;2023-06-04T00:05:05;5.78;;;2.95;;
49015;SDS011;34830;44.064;12.566;2023-06-04T00:07:31;4.47;;;2.53;;
49015;SDS011;34830;44.064;12.566;2023-06-04T00:09:57;4.15;;;2.58;;
49015;SDS011;34830;44.064;12.566;2023-06-04T00:12:23;5.88;;;2.85;;
49015;SDS011;34830;44.064;12.566;2023-06-04T00:14:49;3.55;;;2.50;;
49015;SDS011;34830;44.064;12.566;2023-06-04T00:17:15;4.70;;;2.90;;
49015;SDS011;34830;44.064;12.566;2023-06-04T00:19:42;4.95;;;2.58;;
49015;SDS011;34830;44.064;12.566;2023-06-04T00:22:08;4.68;;;2.70;;
49015;SDS011;34830;44.064;12.566;2023-06-04T00:24:35;3.22;;;2.63;;
49015;SDS011;34830;44.064;12.566;2023-06-04T00:27:02;3.33;;;2.42;;
49015;SDS011;34830;44.064;12.566;2023-06-04T00:29:29;4.47;;;2.67;;
49015;SDS011;34830;44.064;12.566;2023-06-04T00:31:55;2.92;;;2.00;;
49015;SDS011;34830;44.064;12.566;2023-06-04T00:34:21;2.78;;;1.83;;
49015;SDS011;34830;44.064;12.566;2023-06-04T00:36:47;5.75;;;2.53;;
49015;SDS011;34830;44.064;12.566;2023-06-04T00:39:13;5.30;;;2.42;;
49015;SDS011;34830;44.064;12.566;2023-06-04T00:41:40;4.65;;;2.03;;
49015;SDS011;34830;44.064;12.566;2023-06-04T00:44:06;4.57;;;2.25;;
49015;SDS011;34830;44.064;12.566;2023-06-04T00:46:32;4.05;;;2.42;;
49015;SDS011;34830;44.064;12.566;2023-06-04T00:49:01;5.95;;;1.83;;
49015;SDS011;34830;44.064;12.566;2023-06-04T00:51:27;3.55;;;2.10;;
49015;SDS011;34830;44.064;12.566;2023-06-04T00:53:56;8.18;;;2.50;;
49015;SDS011;34830;44.064;12.566;2023-06-04T00:56:22;5.35;;;1.90;;
49015;SDS011;34830;44.064;12.566;2023-06-04T00:58:48;3.35;;;1.95;;
49015;SDS011;34830;44.064;12.566;2023-06-04T01:04:08;4.03;;;2.25;;
49015;SDS011;34830;44.064;12.566;2023-06-04T01:06:39;8.82;;;2.33;;
49015;SDS011;34830;44.064;12.566;2023-06-04T01:09:09;3.73;;;2.23;;
49015;SDS011;34830;44.064;12.566;2023-06-04T01:11:37;4.68;;;2.20;;
49015;SDS011;34830;44.064;12.566;2023-06-04T01:14:04;4.28;;;2.05;;
49015;SDS011;34830;44.064;12.566;2023-06-04T01:16:45;3.22;;;1.77;;
49015;SDS011;34830;44.064;12.566;2023-06-04T01:22:17;6.72;;;2.20;;
49015;SDS011;34830;44.064;12.566;2023-06-04T01:25:02;5.13;;;2.38;;
49015;SDS011;34830;44.064;12.566;2023-06-04T01:27:30;4.45;;;2.10;;
49015;SDS011;34830;44.064;12.566;2023-06-04T01:29:58;3.47;;;1.90;;
49015;SDS011;34830;44.064;12.566;2023-06-04T01:32:26;6.72;;;2.00;;
49015;SDS011;34830;44.064;12.566;2023-06-04T01:34:52;5.00;;;1.95;;
49015;SDS011;34830;44.064;12.566;2023-06-04T01:37:18;8.85;;;2.53;;
49015;SDS011;34830;44.064;12.566;2023-06-04T01:39:44;7.38;;;3.13;;
49015;SDS011;34830;44.064;12.566;2023-06-04T01:42:10;3.85;;;1.98;;
49015;SDS011;34830;44.064;12.566;2023-06-04T01:44:36;3.25;;;1.75;;
49015;SDS011;34830;44.064;12.566;2023-06-04T01:47:02;3.40;;;1.73;;
49015;SDS011;34830;44.064;12.566;2023-06-04T01:49:28;3.85;;;2.20;;
49015;SDS011;34830;44.064;12.566;2023-06-04T01:51:55;4.00;;;1.90;;
49015;SDS011;34830;44.064;12.566;2023-06-04T01:54:22;2.83;;;2.10;;
49015;SDS011;34830;44.064;12.566;2023-06-04T01:56:48;5.32;;;2.17;;
49015;SDS011;34830;44.064;12.566;2023-06-04T01:59:14;4.00;;;2.38;;
49015;SDS011;34830;44.064;12.566;2023-06-04T02:01:42;3.97;;;2.30;;
49015;SDS011;34830;44.064;12.566;2023-06-04T02:04:08;3.83;;;1.80;;
49015;SDS011;34830;44.064;12.566;2023-06-04T02:06:34;3.22;;;1.95;;
49015;SDS011;34830;44.064;12.566;2023-06-04T02:09:02;2.65;;;1.85;;
49015;SDS011;34830;44.064;12.566;2023-06-04T02:11:29;2.70;;;1.85;;
49015;SDS011;34830;44.064;12.566;2023-06-04T02:13:55;3.60;;;2.10;;
49015;SDS011;34830;44.064;12.566;2023-06-04T02:16:21;3.83;;;1.60;;
49015;SDS011;34830;44.064;12.566;2023-06-04T02:18:47;3.47;;;1.70;;
49015;SDS011;34830;44.064;12.566;2023-06-04T02:21:14;2.85;;;1.60;;
49015;SDS011;34830;44.064;12.566;2023-06-04T02:23:40;5.65;;;2.10;;
49015;SDS011;34830;44.064;12.566;2023-06-04T02:26:06;2.95;;;1.80;;
49015;SDS011;34830;44.064;12.566;2023-06-04T02:28:32;3.47;;;1.85;;
49015;SDS011;34830;44.064;12.566;2023-06-04T02:30:58;2.75;;;1.88;;
49015;SDS011;34830;44.064;12.566;2023-06-04T02:33:24;5.20;;;1.85;;
49015;SDS011;34830;44.064;12.566;2023-06-04T02:35:50;4.90;;;1.90;;
49015;SDS011;34830;44.064;12.566;2023-06-04T02:38:16;6.97;;;2.35;;
49015;SDS011;34830;44.064;12.566;2023-06-04T02:40:42;3.55;;;1.73;;
49015;SDS011;34830;44.064;12.566;2023-06-04T02:43:10;7.97;;;1.90;;
49015;SDS011;34830;44.064;12.566;2023-06-04T02:45:36;5.63;;;2.65;;
49015;SDS011;34830;44.064;12.566;2023-06-04T02:48:02;5.60;;;2.50;;
49015;SDS011;34830;44.064;12.566;2023-06-04T02:50:28;4.00;;;2.40;;
49015;SDS011;34830;44.064;12.566;2023-06-04T02:52:54;4.43;;;1.90;;
49015;SDS011;34830;44.064;12.566;2023-06-04T02:55:20;4.40;;;2.67;;
49015;SDS011;34830;44.064;12.566;2023-06-04T02:57:47;4.20;;;2.47;;
49015;SDS011;34830;44.064;12.566;2023-06-04T03:00:13;3.97;;;2.00;;
49015;SDS011;34830;44.064;12.566;2023-06-04T03:02:41;3.35;;;2.08;;
49015;SDS011;34830;44.064;12.566;2023-06-04T03:05:09;4.25;;;1.92;;
49015;SDS011;34830;44.064;12.566;2023-06-04T03:07:37;4.45;;;2.47;;
49015;SDS011;34830;44.064;12.566;2023-06-04T03:10:03;4.75;;;1.95;;
49015;SDS011;34830;44.064;12.566;2023-06-04T03:12:31;3.58;;;2.05;;
49015;SDS011;34830;44.064;12.566;2023-06-04T03:14:57;5.60;;;2.22;;
49015;SDS011;34830;44.064;12.566;2023-06-04T03:17:23;3.65;;;1.92;;
49015;SDS011;34830;44.064;12.566;2023-06-04T03:19:49;4.75;;;2.20;;
49015;SDS011;34830;44.064;12.566;2023-06-04T03:22:15;4.30;;;2.13;;
49015;SDS011;34830;44.064;12.566;2023-06-04T03:24:41;7.05;;;2.40;;
49015;SDS011;34830;44.064;12.566;2023-06-04T03:27:08;2.50;;;1.63;;
49015;SDS011;34830;44.064;12.566;2023-06-04T03:29:35;3.88;;;1.63;;
49015;SDS011;34830;44.064;12.566;2023-06-04T03:32:03;3.95;;;2.03;;
49015;SDS011;34830;44.064;12.566;2023-06-04T03:34:31;6.05;;;1.70;;
49015;SDS011;34830;44.064;12.566;2023-06-04T03:36:58;6.10;;;2.72;;
49015;SDS011;34830;44.064;12.566;2023-06-04T03:39:25;3.03;;;1.90;;
49015;SDS011;34830;44.064;12.566;2023-06-04T03:41:51;3.92;;;1.88;;
49015;SDS011;34830;44.064;12.566;2023-06-04T03:44:20;4.95;;;2.28;;
49015;SDS011;34830;44.064;12.566;2023-06-04T03:46:47;5.03;;;2.35;;
49015;SDS011;34830;44.064;12.566;2023-06-04T03:49:16;3.80;;;1.75;;
49015;SDS011;34830;44.064;12.566;2023-06-04T03:51:44;3.70;;;2.30;;
49015;SDS011;34830;44.064;12.566;2023-06-04T03:54:11;5.03;;;1.80;;
49015;SDS011;34830;44.064;12.566;2023-06-04T03:56:37;3.83;;;2.22;;
49015;SDS011;34830;44.064;12.566;2023-06-04T03:59:04;3.88;;;2.30;;
49015;SDS011;34830;44.064;12.566;2023-06-04T04:01:31;6.03;;;1.88;;
49015;SDS011;34830;44.064;12.566;2023-06-04T04:03:58;4.32;;;2.13;;
49015;SDS011;34830;44.064;12.566;2023-06-04T04:06:29;6.47;;;3.08;;
49015;SDS011;34830;44.064;12.566;2023-06-04T04:08:56;4.95;;;2.38;;
49015;SDS011;34830;44.064;12.566;2023-06-04T04:11:23;4.75;;;2.22;;
49015;SDS011;34830;44.064;12.566;2023-06-04T04:13:50;4.82;;;2.45;;
49015;SDS011;34830;44.064;12.566;2023-06-04T04:16:17;4.05;;;2.65;;
49015;SDS011;34830;44.064;12.566;2023-06-04T04:18:43;7.07;;;2.45;;
49015;SDS011;34830;44.064;12.566;2023-06-04T04:21:10;4.28;;;2.78;;
49015;SDS011;34830;44.064;12.566;2023-06-04T04:23:38;5.43;;;3.25;;
49015;SDS011;34830;44.064;12.566;2023-06-04T04:26:08;6.03;;;2.72;;
49015;SDS011;34830;44.064;12.566;2023-06-04T04:28:36;4.72;;;2.50;;
49015;SDS011;34830;44.064;12.566;2023-06-04T04:31:02;3.60;;;2.33;;
49015;SDS011;34830;44.064;12.566;2023-06-04T04:33:32;4.20;;;2.42;;
49015;SDS011;34830;44.064;12.566;2023-06-04T04:36:03;4.05;;;2.40;;
49015;SDS011;34830;44.064;12.566;2023-06-04T04:38:31;4.78;;;2.65;;
49015;SDS011;34830;44.064;12.566;2023-06-04T04:41:02;4.68;;;2.50;;
49015;SDS011;34830;44.064;12.566;2023-06-04T04:43:33;5.03;;;2.70;;
49015;SDS011;34830;44.064;12.566;2023-06-04T04:46:07;4.95;;;2.40;;
49015;SDS011;34830;44.064;12.566;2023-06-04T04:48:34;5.22;;;2.47;;
49015;SDS011;34830;44.064;12.566;2023-06-04T04:51:00;6.85;;;2.58;;
49015;SDS011;34830;44.064;12.566;2023-06-04T04:53:27;3.75;;;2.20;;
49015;SDS011;34830;44.064;12.566;2023-06-04T04:55:54;5.05;;;2.15;;
49015;SDS011;34830;44.064;12.566;2023-06-04T04:58:20;5.55;;;1.90;;
49015;SDS011;34830;44.064;12.566;2023-06-04T05:00:46;5.00;;;2.30;;
49015;SDS011;34830;44.064;12.566;2023-06-04T05:03:14;12.00;;;2.65;;
49015;SDS011;34830;44.064;12.566;2023-06-04T05:05:40;6.82;;;2.10;;
49015;SDS011;34830;44.064;12.566;2023-06-04T05:08:06;8.07;;;2.10;;
49015;SDS011;34830;44.064;12.566;2023-06-04T05:10:37;11.15;;;2.78;;
49015;SDS011;34830;44.064;12.566;2023-06-04T05:13:05;12.70;;;3.30;;
49015;SDS011;34830;44.064;12.566;2023-06-04T05:15:39;17.00;;;3.97;;
49015;SDS011;34830;44.064;12.566;2023-06-04T05:18:08;14.00;;;2.78;;
49015;SDS011;34830;44.064;12.566;2023-06-04T05:20:37;10.60;;;2.50;;
49015;SDS011;34830;44.064;12.566;2023-06-04T05:23:05;9.05;;;2.80;;
49015;SDS011;34830;44.064;12.566;2023-06-04T05:25:32;15.23;;;3.00;;
49015;SDS011;34830;44.064;12.566;2023-06-04T05:28:00;8.23;;;2.88;;
49015;SDS011;34830;44.064;12.566;2023-06-04T05:30:26;4.72;;;2.13;;
49015;SDS011;34830;44.064;12.566;2023-06-04T05:32:54;6.55;;;2.35;;
49015;SDS011;34830;44.064;12.566;2023-06-04T05:35:24;7.07;;;2.40;;
49015;SDS011;34830;44.064;12.566;2023-06-04T05:37:50;5.80;;;2.58;;
49015;SDS011;34830;44.064;12.566;2023-06-04T05:40:21;5.97;;;2.97;;
49015;SDS011;34830;44.064;12.566;2023-06-04T05:42:49;4.85;;;2.50;;
49015;SDS011;34830;44.064;12.566;2023-06-04T05:45:16;5.13;;;2.55;;
49015;SDS011;34830;44.064;12.566;2023-06-04T05:47:43;4.85;;;2.50;;
49015;SDS011;34830;44.064;12.566;2023-06-04T05:50:10;10.00;;;3.65;;
49015;SDS011;34830;44.064;12.566;2023-06-04T05:52:39;5.38;;;2.17;;
49015;SDS011;34830;44.064;12.566;2023-06-04T05:55:09;6.15;;;2.78;;
49015;SDS011;34830;44.064;12.566;2023-06-04T05:57:37;6.93;;;2.35;;
49015;SDS011;34830;44.064;12.566;2023-06-04T06:00:08;5.40;;;2.30;;
49015;SDS011;34830;44.064;12.566;2023-06-04T06:02:40;4.63;;;2.20;;
49015;SDS011;34830;44.064;12.566;2023-06-04T06:05:17;7.03;;;2.58;;
49015;SDS011;34830;44.064;12.566;2023-06-04T06:07:44;5.75;;;1.95;;
49015;SDS011;34830;44.064;12.566;2023-06-04T06:10:10;6.78;;;1.85;;
49015;SDS011;34830;44.064;12.566;2023-06-04T06:12:39;4.15;;;1.73;;
49015;SDS011;34830;44.064;12.566;2023-06-04T06:15:06;3.42;;;2.17;;
49015;SDS011;34830;44.064;12.566;2023-06-04T06:17:33;6.95;;;1.80;;
49015;SDS011;34830;44.064;12.566;2023-06-04T06:19:59;3.13;;;1.70;;
49015;SDS011;34830;44.064;12.566;2023-06-04T06:22:26;6.00;;;1.70;;
49015;SDS011;34830;44.064;12.566;2023-06-04T06:24:53;5.43;;;2.08;;
49015;SDS011;34830;44.064;12.566;2023-06-04T06:27:19;3.00;;;1.75;;
49015;SDS011;34830;44.064;12.566;2023-06-04T06:29:45;7.13;;;1.65;;
49015;SDS011;34830;44.064;12.566;2023-06-04T06:32:12;4.38;;;1.60;;
49015;SDS011;34830;44.064;12.566;2023-06-04T06:34:40;10.52;;;1.80;;
49015;SDS011;34830;44.064;12.566;2023-06-04T06:37:08;4.32;;;2.85;;
49015;SDS011;34830;44.064;12.566;2023-06-04T06:39:34;3.47;;;1.80;;
49015;SDS011;34830;44.064;12.566;2023-06-04T06:42:01;4.03;;;3.38;;
49015;SDS011;34830;44.064;12.566;2023-06-04T06:44:33;4.22;;;1.60;;
49015;SDS011;34830;44.064;12.566;2023-06-04T06:46:59;6.57;;;2.85;;
49015;SDS011;34830;44.064;12.566;2023-06-04T06:49:25;4.05;;;3.05;;
49015;SDS011;34830;44.064;12.566;2023-06-04T06:51:51;4.32;;;2.42;;
49015;SDS011;34830;44.064;12.566;2023-06-04T06:54:17;3.33;;;2.17;;
49015;SDS011;34830;44.064;12.566;2023-06-04T06:56:47;5.70;;;2.50;;
49015;SDS011;34830;44.064;12.566;2023-06-04T06:59:15;4.90;;;2.45;;
49015;SDS011;34830;44.064;12.566;2023-06-04T07:01:41;6.75;;;2.40;;
49015;SDS011;34830;44.064;12.566;2023-06-04T07:04:07;4.22;;;2.20;;
49015;SDS011;34830;44.064;12.566;2023-06-04T07:06:33;7.00;;;2.30;;
49015;SDS011;34830;44.064;12.566;2023-06-04T07:08:59;4.60;;;2.45;;
49015;SDS011;34830;44.064;12.566;2023-06-04T07:11:26;4.53;;;2.70;;
49015;SDS011;34830;44.064;12.566;2023-06-04T07:13:52;5.38;;;2.97;;
49015;SDS011;34830;44.064;12.566;2023-06-04T07:16:18;5.68;;;2.90;;
49015;SDS011;34830;44.064;12.566;2023-06-04T07:18:47;7.35;;;3.20;;
49015;SDS011;34830;44.064;12.566;2023-06-04T07:21:15;4.50;;;2.85;;
49015;SDS011;34830;44.064;12.566;2023-06-04T07:23:41;6.00;;;3.30;;
49015;SDS011;34830;44.064;12.566;2023-06-04T07:26:08;4.55;;;2.95;;
49015;SDS011;34830;44.064;12.566;2023-06-04T07:28:34;6.53;;;3.13;;
49015;SDS011;34830;44.064;12.566;2023-06-04T07:31:00;5.95;;;3.50;;
49015;SDS011;34830;44.064;12.566;2023-06-04T07:33:26;5.55;;;2.63;;
49015;SDS011;34830;44.064;12.566;2023-06-04T07:35:52;5.20;;;3.00;;
49015;SDS011;34830;44.064;12.566;2023-06-04T07:38:18;5.60;;;3.35;;
49015;SDS011;34830;44.064;12.566;2023-06-04T07:40:45;5.05;;;3.25;;
49015;SDS011;34830;44.064;12.566;2023-06-04T07:43:11;7.47;;;3.70;;
49015;SDS011;34830;44.064;12.566;2023-06-04T07:45:37;4.75;;;3.22;;
49015;SDS011;34830;44.064;12.566;2023-06-04T07:48:03;4.85;;;2.85;;
49015;SDS011;34830;44.064;12.566;2023-06-04T07:50:30;4.65;;;3.40;;
49015;SDS011;34830;44.064;12.566;2023-06-04T07:52:56;5.88;;;3.25;;
49015;SDS011;34830;44.064;12.566;2023-06-04T07:55:22;10.73;;;3.00;;
49015;SDS011;34830;44.064;12.566;2023-06-04T07:57:48;6.10;;;3.42;;
49015;SDS011;34830;44.064;12.566;2023-06-04T08:00:14;5.38;;;3.42;;
49015;SDS011;34830;44.064;12.566;2023-06-04T08:02:40;8.70;;;3.50;;
49015;SDS011;34830;44.064;12.566;2023-06-04T08:05:06;7.20;;;3.55;;
49015;SDS011;34830;44.064;12.566;2023-06-04T08:07:32;5.47;;;4.00;;
49015;SDS011;34830;44.064;12.566;2023-06-04T08:09:59;5.28;;;3.70;;
49015;SDS011;34830;44.064;12.566;2023-06-04T08:12:26;7.30;;;3.92;;
49015;SDS011;34830;44.064;12.566;2023-06-04T08:14:52;5.93;;;3.60;;
49015;SDS011;34830;44.064;12.566;2023-06-04T08:17:22;8.97;;;4.00;;
49015;SDS011;34830;44.064;12.566;2023-06-04T08:19:48;5.53;;;3.67;;
49015;SDS011;34830;44.064;12.566;2023-06-04T08:22:14;7.82;;;4.18;;
49015;SDS011;34830;44.064;12.566;2023-06-04T08:24:40;7.05;;;3.85;;
49015;SDS011;34830;44.064;12.566;2023-06-04T08:27:06;5.45;;;3.90;;
49015;SDS011;34830;44.064;12.566;2023-06-04T08:29:34;8.05;;;5.20;;
49015;SDS011;34830;44.064;12.566;2023-06-04T08:32:02;5.70;;;4.10;;
49015;SDS011;34830;44.064;12.566;2023-06-04T08:34:29;8.80;;;4.20;;
49015;SDS011;34830;44.064;12.566;2023-06-04T08:36:55;6.55;;;4.20;;
49015;SDS011;34830;44.064;12.566;2023-06-04T08:39:22;7.93;;;4.57;;
49015;SDS011;34830;44.064;12.566;2023-06-04T08:41:49;7.65;;;4.93;;
49015;SDS011;34830;44.064;12.566;2023-06-04T08:44:17;5.38;;;3.63;;
49015;SDS011;34830;44.064;12.566;2023-06-04T08:46:44;7.43;;;3.80;;
49015;SDS011;34830;44.064;12.566;2023-06-04T08:49:11;6.55;;;4.35;;
49015;SDS011;34830;44.064;12.566;2023-06-04T08:51:38;6.28;;;4.75;;
49015;SDS011;34830;44.064;12.566;2023-06-04T08:54:05;6.20;;;4.22;;
49015;SDS011;34830;44.064;12.566;2023-06-04T08:56:33;7.53;;;6.35;;
49015;SDS011;34830;44.064;12.566;2023-06-04T08:59:00;8.52;;;5.50;;
49015;SDS011;34830;44.064;12.566;2023-06-04T09:01:28;7.45;;;5.82;;
49015;SDS011;34830;44.064;12.566;2023-06-04T09:03:55;9.40;;;5.65;;
49015;SDS011;34830;44.064;12.566;2023-06-04T09:06:25;8.02;;;5.50;;
49015;SDS011;34830;44.064;12.566;2023-06-04T09:08:51;10.18;;;6.75;;
49015;SDS011;34830;44.064;12.566;2023-06-04T09:11:20;10.95;;;6.15;;
49015;SDS011;34830;44.064;12.566;2023-06-04T09:13:47;9.02;;;5.80;;
49015;SDS011;34830;44.064;12.566;2023-06-04T09:16:13;9.88;;;5.70;;
49015;SDS011;34830;44.064;12.566;2023-06-04T09:18:39;8.85;;;6.22;;
49015;SDS011;34830;44.064;12.566;2023-06-04T09:21:08;10.70;;;6.30;;
49015;SDS011;34830;44.064;12.566;2023-06-04T09:23:43;8.80;;;5.70;;
49015;SDS011;34830;44.064;12.566;2023-06-04T09:26:13;8.73;;;5.97;;
49015;SDS011;34830;44.064;12.566;2023-06-04T09:28:43;10.45;;;6.38;;
49015;SDS011;34830;44.064;12.566;2023-06-04T09:31:17;20.98;;;6.28;;
49015;SDS011;34830;44.064;12.566;2023-06-04T09:33:44;9.65;;;5.65;;
49015;SDS011;34830;44.064;12.566;2023-06-04T09:36:11;9.60;;;5.43;;
49015;SDS011;34830;44.064;12.566;2023-06-04T09:38:37;6.57;;;5.18;;
49015;SDS011;34830;44.064;12.566;2023-06-04T09:41:17;6.88;;;5.97;;
49015;SDS011;34830;44.064;12.566;2023-06-04T09:43:47;11.00;;;6.15;;
49015;SDS011;34830;44.064;12.566;2023-06-04T09:46:14;10.40;;;5.95;;
49015;SDS011;34830;44.064;12.566;2023-06-04T09:48:41;7.85;;;6.43;;
49015;SDS011;34830;44.064;12.566;2023-06-04T09:51:08;9.88;;;7.00;;
49015;SDS011;34830;44.064;12.566;2023-06-04T09:53:36;8.80;;;6.03;;
49015;SDS011;34830;44.064;12.566;2023-06-04T09:56:03;10.13;;;5.55;;
49015;SDS011;34830;44.064;12.566;2023-06-04T09:58:30;7.05;;;5.38;;
49015;SDS011;34830;44.064;12.566;2023-06-04T10:00:58;9.60;;;6.45;;
49015;SDS011;34830;44.064;12.566;2023-06-04T10:03:25;11.27;;;6.15;;
49015;SDS011;34830;44.064;12.566;2023-06-04T10:05:56;8.30;;;6.18;;
49015;SDS011;34830;44.064;12.566;2023-06-04T10:08:23;8.93;;;6.50;;
49015;SDS011;34830;44.064;12.566;2023-06-04T10:10:56;10.15;;;6.53;;
49015;SDS011;34830;44.064;12.566;2023-06-04T10:13:26;9.50;;;6.60;;
49015;SDS011;34830;44.064;12.566;2023-06-04T10:15:59;10.60;;;7.43;;
49015;SDS011;34830;44.064;12.566;2023-06-04T10:18:29;8.30;;;6.18;;
49015;SDS011;34830;44.064;12.566;2023-06-04T10:20:55;8.52;;;6.57;;
49015;SDS011;34830;44.064;12.566;2023-06-04T10:23:22;9.52;;;5.80;;
49015;SDS011;34830;44.064;12.566;2023-06-04T10:25:49;9.52;;;6.70;;
49015;SDS011;34830;44.064;12.566;2023-06-04T10:28:19;10.88;;;7.63;;
49015;SDS011;34830;44.064;12.566;2023-06-04T10:30:46;10.77;;;6.57;;
49015;SDS011;34830;44.064;12.566;2023-06-04T10:33:19;11.80;;;6.68;;
49015;SDS011;34830;44.064;12.566;2023-06-04T10:35:47;7.30;;;5.82;;
49015;SDS011;34830;44.064;12.566;2023-06-04T10:38:13;8.05;;;6.40;;
49015;SDS011;34830;44.064;12.566;2023-06-04T10:40:42;7.05;;;6.00;;
49015;SDS011;34830;44.064;12.566;2023-06-04T10:43:08;10.25;;;7.28;;
49015;SDS011;34830;44.064;12.566;2023-06-04T10:45:36;8.98;;;6.97;;
49015;SDS011;34830;44.064;12.566;2023-06-04T10:48:03;8.73;;;6.95;;
49015;SDS011;34830;44.064;12.566;2023-06-04T10:50:30;9.98;;;6.95;;
49015;SDS011;34830;44.064;12.566;2023-06-04T10:52:57;12.27;;;8.10;;
49015;SDS011;34830;44.064;12.566;2023-06-04T10:55:24;9.00;;;6.90;;
49015;SDS011;34830;44.064;12.566;2023-06-04T10:57:54;10.23;;;6.30;;
49015;SDS011;34830;44.064;12.566;2023-06-04T11:00:39;9.75;;;6.80;;
49015;SDS011;34830;44.064;12.566;2023-06-04T11:03:13;10.73;;;6.80;;
49015;SDS011;34830;44.064;12.566;2023-06-04T11:05:39;10.30;;;7.05;;
49015;SDS011;34830;44.064;12.566;2023-06-04T11:08:11;11.25;;;7.60;;
49015;SDS011;34830;44.064;12.566;2023-06-04T11:10:39;9.75;;;6.90;;
49015;SDS011;34830;44.064;12.566;2023-06-04T11:13:07;8.73;;;6.53;;
49015;SDS011;34830;44.064;12.566;2023-06-04T11:18:05;15.20;;;7.72;;
49015;SDS011;34830;44.064;12.566;2023-06-04T11:20:31;10.38;;;7.45;;
49015;SDS011;34830;44.064;12.566;2023-06-04T11:22:58;8.88;;;6.95;;
49015;SDS011;34830;44.064;12.566;2023-06-04T11:27:56;11.35;;;7.38;;
49015;SDS011;34830;44.064;12.566;2023-06-04T11:30:23;11.13;;;7.78;;
49015;SDS011;34830;44.064;12.566;2023-06-04T11:32:50;8.77;;;7.65;;
49015;SDS011;34830;44.064;12.566;2023-06-04T11:35:16;13.57;;;7.70;;
49015;SDS011;34830;44.064;12.566;2023-06-04T11:37:52;11.90;;;7.68;;
49015;SDS011;34830;44.064;12.566;2023-06-04T11:40:19;11.10;;;7.70;;
49015;SDS011;34830;44.064;12.566;2023-06-04T11:42:49;10.23;;;6.68;;
49015;SDS011;34830;44.064;12.566;2023-06-04T11:45:16;12.95;;;7.38;;
49015;SDS011;34830;44.064;12.566;2023-06-04T11:47:50;8.27;;;6.32;;
49015;SDS011;34830;44.064;12.566;2023-06-04T11:50:18;11.07;;;7.43;;
49015;SDS011;34830;44.064;12.566;2023-06-04T11:52:46;10.68;;;7.15;;
49015;SDS011;34830;44.064;12.566;2023-06-04T11:55:14;8.23;;;6.07;;
49015;SDS011;34830;44.064;12.566;2023-06-04T11:57:40;8.43;;;6.28;;
49015;SDS011;34830;44.064;12.566;2023-06-04T12:00:07;10.32;;;6.88;;
49015;SDS011;34830;44.064;12.566;2023-06-04T12:02:37;8.02;;;6.38;;
49015;SDS011;34830;44.064;12.566;2023-06-04T12:05:37;10.88;;;6.45;;
49015;SDS011;34830;44.064;12.566;2023-06-04T12:08:06;13.90;;;6.68;;
49015;SDS011;34830;44.064;12.566;2023-06-04T12:10:38;8.90;;;5.45;;
49015;SDS011;34830;44.064;12.566;2023-06-04T12:13:05;7.63;;;5.45;;
49015;SDS011;34830;44.064;12.566;2023-06-04T12:15:35;8.45;;;5.22;;
49015;SDS011;34830;44.064;12.566;2023-06-04T12:18:01;10.38;;;4.88;;
49015;SDS011;34830;44.064;12.566;2023-06-04T12:23:18;8.50;;;4.82;;
49015;SDS011;34830;44.064;12.566;2023-06-04T12:25:49;7.80;;;4.03;;
49015;SDS011;34830;44.064;12.566;2023-06-04T12:30:43;9.98;;;5.07;;
49015;SDS011;34830;44.064;12.566;2023-06-04T12:33:10;6.43;;;4.03;;
49015;SDS011;34830;44.064;12.566;2023-06-04T12:35:37;5.28;;;4.20;;
49015;SDS011;34830;44.064;12.566;2023-06-04T12:38:03;8.73;;;4.20;;
49015;SDS011;34830;44.064;12.566;2023-06-04T12:40:31;6.70;;;3.92;;
49015;SDS011;34830;44.064;12.566;2023-06-04T12:42:57;9.30;;;4.20;;
49015;SDS011;34830;44.064;12.566;2023-06-04T12:45:24;7.97;;;4.28;;
49015;SDS011;34830;44.064;12.566;2023-06-04T12:47:50;5.25;;;3.97;;
49015;SDS011;34830;44.064;12.566;2023-06-04T12:50:16;5.47;;;4.32;;
49015;SDS011;34830;44.064;12.566;2023-06-04T12:52:45;5.15;;;3.42;;
49015;SDS011;34830;44.064;12.566;2023-06-04T12:55:15;6.45;;;3.72;;
49015;SDS011;34830;44.064;12.566;2023-06-04T12:57:41;6.55;;;3.40;;
49015;SDS011;34830;44.064;12.566;2023-06-04T13:00:10;5.78;;;3.00;;
49015;SDS011;34830;44.064;12.566;2023-06-04T13:02:37;4.78;;;3.55;;
49015;SDS011;34830;44.064;12.566;2023-06-04T13:05:12;4.05;;;3.15;;
49015;SDS011;34830;44.064;12.566;2023-06-04T13:07:42;4.47;;;3.30;;
49015;SDS011;34830;44.064;12.566;2023-06-04T13:10:08;7.05;;;3.50;;
49015;SDS011;34830;44.064;12.566;2023-06-04T13:12:35;6.68;;;4.05;;
49015;SDS011;34830;44.064;12.566;2023-06-04T13:15:01;8.88;;;4.13;;
49015;SDS011;34830;44.064;12.566;2023-06-04T13:17:29;6.10;;;3.38;;
49015;SDS011;34830;44.064;12.566;2023-06-04T13:19:55;6.20;;;3.90;;
49015;SDS011;34830;44.064;12.566;2023-06-04T13:22:22;6.93;;;3.75;;
49015;SDS011;34830;44.064;12.566;2023-06-04T13:24:49;4.93;;;3.10;;
49015;SDS011;34830;44.064;12.566;2023-06-04T13:27:15;4.38;;;3.03;;
49015;SDS011;34830;44.064;12.566;2023-06-04T13:29:41;5.60;;;3.70;;
49015;SDS011;34830;44.064;12.566;2023-06-04T13:32:07;6.07;;;4.13;;
49015;SDS011;34830;44.064;12.566;2023-06-04T13:34:33;5.43;;;3.97;;
49015;SDS011;34830;44.064;12.566;2023-06-04T13:36:59;7.90;;;3.42;;
49015;SDS011;34830;44.064;12.566;2023-06-04T13:39:25;5.38;;;4.28;;
49015;SDS011;34830;44.064;12.566;2023-06-04T13:41:51;6.25;;;4.00;;
49015;SDS011;34830;44.064;12.566;2023-06-04T13:44:17;4.50;;;3.55;;
49015;SDS011;34830;44.064;12.566;2023-06-04T13:46:43;6.40;;;3.42;;
49015;SDS011;34830;44.064;12.566;2023-06-04T13:49:09;5.82;;;3.85;;
49015;SDS011;34830;44.064;12.566;2023-06-04T13:51:35;4.88;;;3.60;;
49015;SDS011;34830;44.064;12.566;2023-06-04T13:54:01;11.05;;;4.80;;
49015;SDS011;34830;44.064;12.566;2023-06-04T13:56:28;6.25;;;3.95;;
49015;SDS011;34830;44.064;12.566;2023-06-04T13:58:55;9.60;;;4.45;;
49015;SDS011;34830;44.064;12.566;2023-06-04T14:01:22;8.05;;;4.57;;
49015;SDS011;34830;44.064;12.566;2023-06-04T14:03:48;8.18;;;4.50;;
49015;SDS011;34830;44.064;12.566;2023-06-04T14:06:14;7.68;;;4.63;;
49015;SDS011;34830;44.064;12.566;2023-06-04T14:08:40;7.90;;;4.63;;
49015;SDS011;34830;44.064;12.566;2023-06-04T14:11:06;7.03;;;3.67;;
49015;SDS011;34830;44.064;12.566;2023-06-04T14:13:32;11.02;;;3.50;;
49015;SDS011;34830;44.064;12.566;2023-06-04T14:15:58;5.45;;;3.30;;
49015;SDS011;34830;44.064;12.566;2023-06-04T14:18:24;4.95;;;3.47;;
49015;SDS011;34830;44.064;12.566;2023-06-04T14:20:50;4.55;;;3.17;;
49015;SDS011;34830;44.064;12.566;2023-06-04T14:23:16;4.53;;;3.08;;
49015;SDS011;34830;44.064;12.566;2023-06-04T14:25:44;4.47;;;3.03;;
49015;SDS011;34830;44.064;12.566;2023-06-04T14:28:10;12.32;;;3.28;;
49015;SDS011;34830;44.064;12.566;2023-06-04T14:30:36;6.13;;;3.28;;
49015;SDS011;34830;44.064;12.566;2023-06-04T14:33:03;7.65;;;4.45;;
49015;SDS011;34830;44.064;12.566;2023-06-04T14:35:29;4.47;;;3.45;;
49015;SDS011;34830;44.064;12.566;2023-06-04T14:37:59;7.25;;;3.55;;
49015;SDS011;34830;44.064;12.566;2023-06-04T14:40:25;5.93;;;3.30;;
49015;SDS011;34830;44.064;12.566;2023-06-04T14:42:52;10.88;;;3.85;;
49015;SDS011;34830;44.064;12.566;2023-06-04T14:45:20;6.57;;;3.35;;
49015;SDS011;34830;44.064;12.566;2023-06-04T14:47:47;6.10;;;3.90;;
49015;SDS011;34830;44.064;12.566;2023-06-04T14:50:16;6.22;;;4.00;;